createdAt,value
2018-07-23T00:01:41.271Z,21.70
2018-07-23T00:03:45.687Z,21.70
2018-07-23T00:07:55.116Z,21.60
2018-07-23T00:09:59.714Z,21.60
2018-07-23T00:12:04.238Z,21.50
2018-07-23T00:16:12.890Z,21.40
2018-07-23T00:18:17.346Z,21.40
2018-07-23T00:20:21.791Z,21.40
2018-07-23T00:22:26.261Z,21.30
2018-07-23T00:24:30.722Z,21.30
2018-07-23T00:26:35.186Z,21.30
2018-07-23T00:28:39.744Z,21.20
2018-07-23T00:30:44.202Z,21.20
2018-07-23T00:32:48.659Z,21.10
2018-07-23T00:34:53.093Z,21.00
2018-07-23T00:36:57.548Z,21.00
2018-07-23T00:39:01.986Z,21.00
2018-07-23T00:41:06.422Z,20.90
2018-07-23T00:43:10.910Z,20.90
2018-07-23T00:45:15.426Z,20.80
2018-07-23T00:47:19.992Z,20.80
2018-07-23T00:49:24.427Z,20.80
2018-07-23T00:51:28.871Z,20.70
2018-07-23T00:55:37.439Z,20.60
2018-07-23T00:57:41.882Z,20.50
2018-07-23T00:59:46.345Z,20.50
2018-07-23T01:01:53.581Z,20.50
2018-07-23T01:03:59.282Z,20.50
2018-07-23T01:06:06.939Z,20.50
2018-07-23T01:08:14.393Z,20.40
2018-07-23T01:10:23.303Z,20.40
2018-07-23T01:12:33.871Z,20.30
2018-07-23T01:14:41.984Z,20.30
2018-07-23T01:16:49.892Z,20.30
2018-07-23T01:18:57.945Z,20.30
2018-07-23T01:21:05.525Z,20.30
2018-07-23T01:23:11.288Z,20.20
2018-07-23T01:25:19.195Z,20.20
2018-07-23T01:27:26.701Z,20.20
2018-07-23T01:29:35.457Z,20.20
2018-07-23T01:33:46.964Z,20.10
2018-07-23T01:35:51.508Z,20.00
2018-07-23T01:37:59.051Z,20.00
2018-07-23T01:40:06.722Z,19.90
2018-07-23T01:42:14.078Z,19.90
2018-07-23T01:44:20.580Z,19.90
2018-07-23T01:46:25.971Z,19.90
2018-07-23T01:48:32.683Z,19.80
2018-07-23T01:50:40.162Z,19.80
2018-07-23T01:52:47.810Z,19.80
2018-07-23T01:54:54.718Z,19.70
2018-07-23T01:57:01.040Z,19.70
2018-07-23T01:59:07.877Z,19.60
2018-07-23T02:01:13.250Z,19.60
2018-07-23T02:03:17.730Z,19.60
2018-07-23T02:05:22.246Z,19.50
2018-07-23T02:07:26.702Z,19.50
2018-07-23T02:09:31.177Z,19.50
2018-07-23T02:11:35.778Z,19.40
2018-07-23T02:13:40.271Z,19.40
2018-07-23T02:15:44.737Z,19.30
2018-07-23T02:17:49.255Z,19.30
2018-07-23T02:19:53.778Z,19.30
2018-07-23T02:21:58.235Z,19.30
2018-07-23T02:24:02.914Z,19.20
2018-07-23T02:26:07.464Z,19.20
2018-07-23T02:28:13.899Z,19.10
2018-07-23T02:30:18.418Z,19.10
2018-07-23T02:32:22.896Z,19.10
2018-07-23T02:34:27.338Z,19.10
2018-07-23T02:36:31.854Z,19.00
2018-07-23T02:38:36.310Z,19.00
2018-07-23T02:40:40.826Z,19.00
2018-07-23T02:42:46.006Z,18.90
2018-07-23T02:44:50.468Z,18.90
2018-07-23T02:46:54.970Z,18.90
2018-07-23T02:48:59.443Z,18.80
2018-07-23T02:51:03.923Z,18.80
2018-07-23T02:53:08.410Z,18.80
2018-07-23T02:55:12.854Z,18.80
2018-07-23T02:57:17.449Z,18.70
2018-07-23T02:59:22.122Z,18.70
2018-07-23T03:03:34.642Z,18.70
2018-07-23T03:05:39.291Z,18.60
2018-07-23T03:07:43.738Z,18.60
2018-07-23T03:11:53.355Z,18.50
2018-07-23T03:13:57.816Z,18.50
2018-07-23T03:16:02.292Z,18.50
2018-07-23T03:18:09.840Z,18.50
2018-07-23T03:20:15.455Z,18.50
2018-07-23T03:22:20.996Z,18.40
2018-07-23T03:24:27.272Z,18.40
2018-07-23T03:26:31.872Z,18.40
2018-07-23T03:28:36.321Z,18.40
2018-07-23T03:30:40.768Z,18.30
2018-07-23T03:32:45.190Z,18.40
2018-07-23T03:36:53.851Z,18.30
2018-07-23T03:38:58.340Z,18.30
2018-07-23T03:41:04.475Z,18.30
2018-07-23T03:43:08.930Z,18.20
2018-07-23T03:45:13.522Z,18.20
2018-07-23T03:47:18.028Z,18.20
2018-07-23T03:49:22.475Z,18.20
2018-07-23T03:51:26.922Z,18.20
2018-07-23T03:53:31.501Z,18.10
2018-07-23T03:55:35.937Z,18.20
2018-07-23T03:59:48.725Z,18.10
2018-07-23T04:01:55.037Z,18.10
2018-07-23T04:04:01.744Z,18.10
2018-07-23T04:06:08.115Z,18.10
2018-07-23T04:08:14.368Z,18.10
2018-07-23T04:10:21.854Z,18.10
2018-07-23T04:12:28.542Z,18.10
2018-07-23T04:14:34.778Z,18.10
2018-07-23T04:18:49.255Z,18.10
2018-07-23T04:23:02.229Z,18.10
2018-07-23T04:25:10.481Z,18.10
2018-07-23T04:27:19.459Z,18.10
2018-07-23T04:29:27.083Z,18.10
2018-07-23T04:31:34.551Z,18.20
2018-07-23T04:33:41.323Z,18.20
2018-07-23T04:35:46.682Z,18.20
2018-07-23T04:37:55.075Z,18.20
2018-07-23T04:39:59.527Z,18.20
2018-07-23T04:42:03.955Z,18.20
2018-07-23T04:44:08.471Z,18.20
2018-07-23T04:46:12.889Z,18.20
2018-07-23T04:48:17.302Z,18.20
2018-07-23T04:54:29.989Z,18.30
2018-07-23T04:56:34.492Z,18.30
2018-07-23T04:58:38.942Z,18.30
2018-07-23T05:00:43.425Z,18.30
2018-07-23T05:02:47.861Z,18.30
2018-07-23T05:06:56.430Z,18.40
2018-07-23T05:09:00.883Z,18.40
2018-07-23T05:11:05.345Z,18.40
2018-07-23T05:13:09.766Z,18.40
2018-07-23T05:15:14.219Z,18.50
2018-07-23T05:17:18.656Z,18.50
2018-07-23T05:19:23.155Z,18.50
2018-07-23T05:21:27.581Z,18.50
2018-07-23T05:25:37.290Z,18.60
2018-07-23T05:27:41.730Z,18.60
2018-07-23T05:29:46.167Z,18.60
2018-07-23T05:31:50.646Z,18.70
2018-07-23T05:33:55.092Z,18.70
2018-07-23T05:35:59.766Z,18.80
2018-07-23T05:40:08.807Z,18.90
2018-07-23T05:42:13.338Z,18.90
2018-07-23T05:44:17.820Z,19.00
2018-07-23T05:46:22.325Z,19.00
2018-07-23T05:48:26.726Z,19.10
2018-07-23T05:50:31.297Z,19.10
2018-07-23T05:52:35.978Z,19.20
2018-07-23T05:56:44.534Z,19.30
2018-07-23T05:58:49.029Z,19.40
2018-07-23T06:00:53.691Z,19.40
2018-07-23T06:02:58.440Z,19.50
2018-07-23T06:05:02.948Z,19.60
2018-07-23T06:07:07.570Z,19.70
2018-07-23T06:09:12.120Z,19.70
2018-07-23T06:11:16.713Z,19.80
2018-07-23T06:13:21.237Z,19.90
2018-07-23T06:15:25.717Z,20.00
2018-07-23T06:17:30.180Z,20.00
2018-07-23T06:19:34.682Z,20.10
2018-07-23T06:21:39.122Z,20.20
2018-07-23T06:23:43.579Z,20.30
2018-07-23T06:25:48.071Z,20.30
2018-07-23T06:27:52.517Z,20.40
2018-07-23T06:29:57.085Z,20.50
2018-07-23T06:34:05.741Z,20.70
2018-07-23T06:36:10.192Z,20.70
2018-07-23T06:38:14.630Z,20.80
2018-07-23T06:40:19.112Z,20.90
2018-07-23T06:42:23.638Z,21.00
2018-07-23T06:44:28.145Z,21.10
2018-07-23T06:48:37.654Z,21.30
2018-07-23T06:50:42.207Z,21.40
2018-07-23T06:52:46.636Z,21.50
2018-07-23T06:54:51.282Z,21.60
2018-07-23T06:56:55.736Z,21.70
2018-07-23T06:59:00.249Z,21.80
2018-07-23T07:01:04.710Z,21.90
2018-07-23T07:03:09.385Z,22.00
2018-07-23T07:05:13.822Z,22.10
2018-07-23T07:07:18.322Z,22.20
2018-07-23T07:09:22.843Z,22.30
2018-07-23T07:11:27.438Z,22.40
2018-07-23T07:13:33.132Z,22.50
2018-07-23T07:15:37.575Z,22.70
2018-07-23T07:17:42.763Z,22.70
2018-07-23T07:19:47.223Z,22.80
2018-07-23T07:21:51.678Z,23.00
2018-07-23T07:26:08.352Z,23.10
2018-07-23T07:28:12.849Z,23.30
2018-07-23T07:30:17.338Z,23.40
2018-07-23T07:32:21.868Z,23.50
2018-07-23T07:34:26.411Z,23.70
2018-07-23T07:36:30.985Z,23.70
2018-07-23T07:38:35.423Z,23.90
2018-07-23T07:40:40.564Z,24.00
2018-07-23T07:42:45.027Z,24.10
2018-07-23T07:44:49.485Z,24.30
2018-07-23T07:46:53.907Z,24.40
2018-07-23T07:48:58.351Z,24.50
2018-07-23T07:51:02.903Z,24.60
2018-07-23T07:53:07.374Z,24.80
2018-07-23T07:55:13.848Z,24.90
2018-07-23T07:57:18.351Z,25.00
2018-07-23T07:59:23.311Z,25.10
2018-07-23T08:01:28.066Z,25.30
2018-07-23T08:03:32.519Z,25.40
2018-07-23T08:05:37.006Z,25.50
2018-07-23T08:07:41.593Z,25.60
2018-07-23T08:09:46.050Z,25.70
2018-07-23T08:11:50.541Z,25.90
2018-07-23T08:13:54.977Z,26.00
2018-07-23T08:15:59.492Z,26.10
2018-07-23T08:18:03.999Z,26.20
2018-07-23T08:20:08.533Z,26.30
2018-07-23T08:24:17.619Z,26.50
2018-07-23T08:26:22.175Z,26.60
2018-07-23T08:28:26.604Z,26.70
2018-07-23T08:30:31.099Z,26.80
2018-07-23T08:32:35.539Z,26.90
2018-07-23T08:34:39.971Z,26.90
2018-07-23T08:36:44.456Z,27.10
2018-07-23T08:38:48.941Z,27.10
2018-07-23T08:40:53.414Z,27.20
2018-07-23T08:42:57.893Z,27.30
2018-07-23T08:45:02.299Z,27.40
2018-07-23T08:47:08.018Z,27.40
2018-07-23T08:49:12.847Z,27.50
2018-07-23T08:51:17.381Z,27.60
2018-07-23T08:53:21.963Z,27.60
2018-07-23T08:55:26.642Z,27.60
2018-07-23T08:57:31.187Z,27.60
2018-07-23T08:59:35.697Z,27.70
2018-07-23T09:01:40.199Z,27.70
2018-07-23T09:03:44.756Z,27.70
2018-07-23T09:05:49.251Z,27.70
2018-07-23T09:07:53.715Z,27.80
2018-07-23T09:09:58.143Z,27.80
2018-07-23T09:12:02.809Z,27.80
2018-07-23T09:14:08.083Z,27.80
2018-07-23T09:16:12.613Z,27.80
2018-07-23T09:18:17.106Z,27.80
2018-07-23T09:20:21.624Z,27.90
2018-07-23T09:22:31.305Z,27.90
2018-07-23T09:24:38.242Z,27.90
2018-07-23T09:28:46.890Z,28.00
2018-07-23T09:30:55.601Z,28.10
2018-07-23T09:33:00.048Z,28.10
2018-07-23T09:35:04.551Z,28.20
2018-07-23T09:37:09.071Z,28.30
2018-07-23T09:39:13.544Z,28.30
2018-07-23T09:41:18.022Z,28.40
2018-07-23T09:43:22.609Z,28.50
2018-07-23T09:45:27.089Z,28.60
2018-07-23T09:47:31.539Z,28.60
2018-07-23T09:49:36.091Z,28.70
2018-07-23T09:53:44.687Z,28.90
2018-07-23T09:55:49.177Z,29.00
2018-07-23T09:57:54.325Z,29.10
2018-07-23T09:59:58.934Z,29.20
2018-07-23T10:02:03.573Z,29.30
2018-07-23T10:04:08.127Z,29.30
2018-07-23T10:06:12.601Z,29.40
2018-07-23T10:08:17.032Z,29.40
2018-07-23T10:10:21.893Z,29.40
2018-07-23T10:12:26.418Z,29.50
2018-07-23T10:14:30.852Z,29.50
2018-07-23T10:16:35.320Z,29.50
2018-07-23T10:18:39.838Z,29.50
2018-07-23T10:20:44.259Z,29.50
2018-07-23T10:22:48.737Z,29.60
2018-07-23T10:24:53.143Z,29.50
2018-07-23T10:26:57.726Z,29.60
2018-07-23T10:29:02.226Z,29.60
2018-07-23T10:31:06.740Z,29.70
2018-07-23T10:33:11.208Z,29.70
2018-07-23T10:35:15.792Z,29.70
2018-07-23T10:37:20.193Z,29.80
2018-07-23T10:39:24.736Z,29.80
2018-07-23T10:41:29.182Z,29.80
2018-07-23T10:43:33.619Z,29.80
2018-07-23T10:45:38.063Z,29.80
2018-07-23T10:49:46.705Z,29.90
2018-07-23T10:51:51.450Z,29.90
2018-07-23T10:53:55.935Z,29.90
2018-07-23T10:56:00.387Z,30.00
2018-07-23T10:58:05.122Z,30.10
2018-07-23T11:00:09.648Z,30.10
2018-07-23T11:02:14.183Z,30.20
2018-07-23T11:04:18.641Z,30.20
2018-07-23T11:06:23.222Z,30.20
2018-07-23T11:08:27.662Z,30.30
2018-07-23T11:10:32.082Z,30.30
2018-07-23T11:12:36.797Z,30.30
2018-07-23T11:14:41.238Z,30.40
2018-07-23T11:16:45.663Z,30.40
2018-07-23T11:18:50.178Z,30.50
2018-07-23T11:20:54.777Z,30.50
2018-07-23T11:22:59.390Z,30.60
2018-07-23T11:25:38.323Z,30.60
2018-07-23T11:27:08.643Z,30.70
2018-07-23T11:29:13.406Z,30.80
2018-07-23T11:31:17.909Z,30.80
2018-07-23T11:33:22.537Z,30.80
2018-07-23T11:35:27.575Z,30.80
2018-07-23T11:37:32.402Z,30.80
2018-07-23T11:39:37.311Z,30.80
2018-07-23T11:41:42.214Z,30.80
2018-07-23T11:43:47.122Z,30.80
2018-07-23T11:45:51.802Z,30.80
2018-07-23T11:47:56.282Z,30.80
2018-07-23T11:50:00.721Z,30.80
2018-07-23T11:52:05.182Z,30.80
2018-07-23T11:54:09.706Z,30.80
2018-07-23T11:56:14.187Z,30.80
2018-07-23T11:58:18.728Z,30.80
2018-07-23T12:00:23.194Z,30.90
2018-07-23T12:02:27.711Z,31.00
2018-07-23T12:04:32.226Z,31.00
2018-07-23T12:06:37.163Z,31.10
2018-07-23T12:08:41.687Z,31.20
2018-07-23T12:10:46.111Z,31.30
2018-07-23T12:12:50.586Z,31.40
2018-07-23T12:14:55.127Z,31.40
2018-07-23T12:16:59.671Z,31.40
2018-07-23T12:19:04.810Z,31.50
2018-07-23T12:21:09.234Z,31.50
2018-07-23T12:27:25.632Z,31.60
2018-07-23T12:29:30.178Z,31.70
2018-07-23T12:31:35.624Z,31.70
2018-07-23T12:33:40.163Z,31.80
2018-07-23T12:35:44.925Z,31.80
2018-07-23T12:37:50.060Z,31.90
2018-07-23T12:39:54.624Z,32.00
2018-07-23T12:41:59.365Z,32.00
2018-07-23T12:44:04.077Z,32.10
2018-07-23T12:48:13.050Z,32.30
2018-07-23T12:52:21.852Z,32.50
2018-07-23T12:54:26.674Z,32.60
2018-07-23T12:56:31.202Z,32.60
2018-07-23T12:58:35.689Z,32.60
2018-07-23T13:00:40.135Z,32.50
2018-07-23T13:02:44.591Z,32.50
2018-07-23T13:04:49.071Z,32.50
2018-07-23T13:06:53.554Z,32.50
2018-07-23T13:08:58.099Z,32.50
2018-07-23T13:11:02.708Z,32.50
2018-07-23T13:13:07.319Z,32.60
2018-07-23T13:15:11.878Z,32.70
2018-07-23T13:17:16.433Z,32.70
2018-07-23T13:19:20.939Z,32.70
2018-07-23T13:23:29.548Z,32.80
2018-07-23T13:25:33.993Z,32.90
2018-07-23T13:27:38.443Z,32.90
2018-07-23T13:29:42.914Z,33.00
2018-07-23T13:33:51.727Z,33.10
2018-07-23T13:35:56.259Z,33.10
2018-07-23T13:38:00.800Z,33.10
2018-07-23T13:40:05.300Z,33.00
2018-07-23T13:42:09.763Z,33.00
2018-07-23T13:44:14.236Z,33.00
2018-07-23T13:46:18.805Z,33.00
2018-07-23T13:48:23.237Z,33.00
2018-07-23T13:50:27.724Z,32.90
2018-07-23T13:52:32.174Z,32.90
2018-07-23T13:54:36.691Z,32.90
2018-07-23T13:56:41.235Z,32.90
2018-07-23T13:58:45.695Z,32.90
2018-07-23T14:00:50.135Z,32.90
2018-07-23T14:02:54.626Z,32.90
2018-07-23T14:04:59.224Z,32.90
2018-07-23T14:07:03.886Z,32.90
2018-07-23T14:09:11.645Z,32.90
2018-07-23T14:11:16.771Z,32.80
2018-07-23T14:13:22.591Z,32.80
2018-07-23T14:15:27.669Z,32.80
2018-07-23T14:17:32.262Z,32.70
2018-07-23T14:19:36.789Z,32.70
2018-07-23T14:21:41.798Z,32.70
2018-07-23T14:23:46.315Z,32.60
2018-07-23T14:25:50.750Z,32.60
2018-07-23T14:27:55.268Z,32.50
2018-07-23T14:29:59.730Z,32.50
2018-07-23T14:32:04.259Z,32.50
2018-07-23T14:34:08.754Z,32.50
2018-07-23T14:36:13.294Z,32.50
2018-07-23T14:40:22.143Z,32.50
2018-07-23T14:42:28.000Z,32.60
2018-07-23T14:44:34.135Z,32.70
2018-07-23T14:46:39.487Z,32.70
2018-07-23T14:48:43.939Z,32.80
2018-07-23T14:50:48.872Z,32.90
2018-07-23T14:52:53.316Z,32.90
2018-07-23T14:54:57.806Z,32.90
2018-07-23T14:57:02.299Z,33.00
2018-07-23T14:59:06.791Z,33.00
2018-07-23T15:01:11.417Z,33.10
2018-07-23T15:03:15.863Z,33.10
2018-07-23T15:05:21.216Z,33.20
2018-07-23T15:07:25.956Z,33.20
2018-07-23T15:09:30.428Z,33.30
2018-07-23T15:11:34.968Z,33.30
2018-07-23T15:13:39.623Z,33.40
2018-07-23T15:15:45.576Z,33.40
2018-07-23T15:17:50.393Z,33.50
2018-07-23T15:19:54.842Z,33.50
2018-07-23T15:21:59.381Z,33.50
2018-07-23T15:24:03.879Z,33.50
2018-07-23T15:26:08.364Z,33.50
2018-07-23T15:28:12.801Z,33.50
2018-07-23T15:30:17.277Z,33.50
2018-07-23T15:32:21.691Z,33.40
2018-07-23T15:34:27.115Z,33.30
2018-07-23T15:36:31.635Z,33.30
2018-07-23T15:38:36.224Z,33.20
2018-07-23T15:40:40.736Z,33.20
2018-07-23T15:42:45.195Z,33.20
2018-07-23T15:46:54.440Z,33.20
2018-07-23T15:48:58.914Z,33.20
2018-07-23T15:51:03.419Z,33.10
2018-07-23T15:53:07.850Z,33.10
2018-07-23T15:55:12.329Z,33.10
2018-07-23T15:57:16.881Z,33.20
2018-07-23T15:59:21.315Z,33.10
2018-07-23T16:03:29.970Z,33.10
2018-07-23T16:05:34.540Z,33.10
2018-07-23T16:07:39.053Z,33.10
2018-07-23T16:09:43.619Z,33.20
2018-07-23T16:11:48.090Z,33.20
2018-07-23T16:13:52.526Z,33.20
2018-07-23T16:15:57.043Z,33.20
2018-07-23T16:18:01.499Z,33.20
2018-07-23T16:20:07.119Z,33.20
2018-07-23T16:24:15.697Z,33.20
2018-07-23T16:26:20.136Z,33.20
2018-07-23T16:28:24.598Z,33.20
2018-07-23T16:30:29.054Z,33.20
2018-07-23T16:32:33.890Z,33.20
2018-07-23T16:34:38.322Z,33.20
2018-07-23T16:36:42.813Z,33.20
2018-07-23T16:38:47.267Z,33.20
2018-07-23T16:40:51.743Z,33.20
2018-07-23T16:42:56.183Z,33.20
2018-07-23T16:45:00.627Z,33.10
2018-07-23T16:47:05.584Z,33.10
2018-07-23T16:49:10.059Z,33.10
2018-07-23T16:53:19.546Z,33.00
2018-07-23T16:57:32.238Z,33.00
2018-07-23T16:59:36.845Z,32.90
2018-07-23T17:01:41.333Z,32.90
2018-07-23T17:03:45.770Z,32.80
2018-07-23T17:05:50.206Z,32.80
2018-07-23T17:07:54.619Z,32.80
2018-07-23T17:09:59.098Z,32.70
2018-07-23T17:12:03.587Z,32.70
2018-07-23T17:14:08.298Z,32.60
2018-07-23T17:18:17.224Z,32.50
2018-07-23T17:20:21.645Z,32.50
2018-07-23T17:22:26.078Z,32.40
2018-07-23T17:24:31.202Z,32.40
2018-07-23T17:26:35.678Z,32.30
2018-07-23T17:28:40.092Z,32.30
2018-07-23T17:30:44.605Z,32.20
2018-07-23T17:32:49.183Z,32.10
2018-07-23T17:34:53.614Z,32.10
2018-07-23T17:36:58.106Z,32.00
2018-07-23T17:39:02.555Z,32.00
2018-07-23T17:41:07.347Z,31.90
2018-07-23T17:43:11.823Z,31.80
2018-07-23T17:45:16.303Z,31.80
2018-07-23T17:47:20.802Z,31.80
2018-07-23T17:49:25.366Z,31.70
2018-07-23T17:51:29.855Z,31.60
2018-07-23T17:53:34.291Z,31.60
2018-07-23T17:55:38.737Z,31.60
2018-07-23T17:57:43.218Z,31.50
2018-07-23T17:59:47.667Z,31.40
2018-07-23T18:01:52.162Z,31.40
2018-07-23T18:03:56.610Z,31.30
2018-07-23T18:06:04.478Z,31.20
2018-07-23T18:08:09.201Z,31.20
2018-07-23T18:10:13.697Z,31.10
2018-07-23T18:12:18.194Z,31.10
2018-07-23T18:14:22.863Z,31.00
2018-07-23T18:16:27.329Z,30.90
2018-07-23T18:18:31.738Z,30.80
2018-07-23T18:20:36.262Z,30.80
2018-07-23T18:22:41.606Z,30.70
2018-07-23T18:24:46.810Z,30.60
2018-07-23T18:26:56.592Z,30.50
2018-07-23T18:29:01.214Z,30.50
2018-07-23T18:31:05.781Z,30.40
2018-07-23T18:33:10.291Z,30.30
2018-07-23T18:35:14.818Z,30.20
2018-07-23T18:37:19.358Z,30.10
2018-07-23T18:39:23.846Z,30.10
2018-07-23T18:41:28.310Z,29.90
2018-07-23T18:43:32.781Z,29.90
2018-07-23T18:45:37.574Z,29.80
2018-07-23T18:47:42.148Z,29.70
2018-07-23T18:49:57.483Z,29.60
2018-07-23T18:52:02.052Z,29.60
2018-07-23T18:54:06.923Z,29.50
2018-07-23T18:56:11.647Z,29.40
2018-07-23T18:58:16.406Z,29.30
2018-07-23T19:00:20.879Z,29.20
2018-07-23T19:02:25.406Z,29.10
2018-07-23T19:04:29.914Z,29.00
2018-07-23T19:06:34.434Z,28.90
2018-07-23T19:08:38.950Z,28.80
2018-07-23T19:12:47.760Z,28.70
2018-07-23T19:14:52.194Z,28.60
2018-07-23T19:16:57.658Z,28.50
2018-07-23T19:19:03.187Z,28.40
2018-07-23T19:21:08.274Z,28.40
2018-07-23T19:23:13.046Z,28.20
2018-07-23T19:25:18.082Z,28.20
2018-07-23T19:27:22.736Z,28.10
2018-07-23T19:32:07.623Z,28.00
2018-07-23T19:34:12.105Z,27.90
2018-07-23T19:38:24.346Z,27.70
2018-07-23T19:42:33.211Z,27.60
2018-07-23T19:44:37.659Z,27.50
2018-07-23T19:46:42.315Z,27.50
2018-07-23T19:50:51.471Z,27.30
2018-07-23T19:52:55.987Z,27.20
2018-07-23T19:55:01.150Z,27.10
2018-07-23T19:57:05.813Z,27.10
2018-07-23T19:59:10.298Z,27.00
2018-07-23T20:01:14.737Z,26.90
2018-07-23T20:03:21.054Z,26.80
2018-07-23T20:05:25.463Z,26.70
2018-07-23T20:07:29.936Z,26.70
2018-07-23T20:09:34.352Z,26.70
2018-07-23T20:11:39.968Z,26.60
2018-07-23T20:13:44.622Z,26.50
2018-07-23T20:15:49.680Z,26.50
2018-07-23T20:17:54.376Z,26.50
2018-07-23T20:19:58.810Z,26.40
2018-07-23T20:22:03.483Z,26.30
2018-07-23T20:24:08.182Z,26.30
2018-07-23T20:26:12.775Z,26.20
2018-07-23T20:28:18.010Z,26.20
2018-07-23T20:30:22.843Z,26.10
2018-07-23T20:32:27.270Z,26.00
2018-07-23T20:34:31.834Z,26.00
2018-07-23T20:38:40.675Z,25.90
2018-07-23T20:40:45.148Z,25.80
2018-07-23T20:42:49.853Z,25.80
2018-07-23T20:44:54.722Z,25.70
2018-07-23T20:46:59.374Z,25.70
2018-07-23T20:49:04.067Z,25.60
2018-07-23T20:51:08.746Z,25.60
2018-07-23T20:53:13.550Z,25.50
2018-07-23T20:55:18.282Z,25.50
2018-07-23T20:57:23.234Z,25.40
2018-07-23T20:59:27.743Z,25.40
2018-07-23T21:01:32.876Z,25.30
2018-07-23T21:03:37.343Z,25.30
2018-07-23T21:05:42.084Z,25.20
2018-07-23T21:09:50.861Z,25.10
2018-07-23T21:11:56.338Z,25.00
2018-07-23T21:14:03.730Z,24.90
2018-07-23T21:16:12.006Z,24.90
2018-07-23T21:18:20.556Z,24.80
2018-07-23T21:20:25.246Z,24.70
2018-07-23T21:22:30.083Z,24.60
2018-07-23T21:24:34.579Z,24.60
2018-07-23T21:26:39.510Z,24.50
2018-07-23T21:28:43.922Z,24.40
2018-07-23T21:30:48.433Z,24.40
2018-07-23T21:32:53.974Z,24.40
2018-07-23T21:34:58.718Z,24.20
2018-07-23T21:37:03.150Z,24.20
2018-07-23T21:39:09.790Z,24.10
2018-07-23T21:41:15.375Z,24.10
2018-07-23T21:43:19.834Z,24.00
2018-07-23T21:45:24.310Z,24.00
2018-07-23T21:49:32.888Z,23.90
2018-07-23T21:51:37.294Z,23.80
2018-07-23T21:53:41.759Z,23.80
2018-07-23T21:55:47.013Z,23.70
2018-07-23T21:57:51.438Z,23.70
2018-07-23T22:02:00.181Z,23.60
2018-07-23T22:04:04.651Z,23.60
2018-07-23T22:06:09.107Z,23.50
2018-07-23T22:08:13.522Z,23.50
2018-07-23T22:10:17.963Z,23.40
2018-07-23T22:12:22.458Z,23.40
2018-07-23T22:14:26.888Z,23.30
2018-07-23T22:16:31.347Z,23.30
2018-07-23T22:18:35.768Z,23.20
2018-07-23T22:20:40.215Z,23.20
2018-07-23T22:22:44.738Z,23.20
2018-07-23T22:24:51.391Z,23.10
2018-07-23T22:26:56.806Z,23.00
2018-07-23T22:29:01.335Z,23.00
2018-07-23T22:31:06.059Z,22.90
2018-07-23T22:33:10.469Z,22.90
2018-07-23T22:35:14.925Z,22.80
2018-07-23T22:37:19.634Z,22.80
2018-07-23T22:41:28.242Z,22.70
2018-07-23T22:43:32.681Z,22.70
2018-07-23T22:45:37.163Z,22.60
2018-07-23T22:47:41.583Z,22.60
2018-07-23T22:49:46.006Z,22.60
2018-07-23T22:51:50.449Z,22.50
2018-07-23T22:53:54.894Z,22.50
2018-07-23T22:55:59.478Z,22.50
2018-07-23T22:58:03.902Z,22.40
2018-07-23T23:00:08.443Z,22.30
2018-07-23T23:02:12.874Z,22.30
2018-07-23T23:04:17.413Z,22.30
2018-07-23T23:08:28.871Z,22.20
2018-07-23T23:10:33.466Z,22.10
2018-07-23T23:12:37.987Z,22.10
2018-07-23T23:14:42.405Z,22.10
2018-07-23T23:16:46.838Z,22.00
2018-07-23T23:18:51.279Z,22.00
2018-07-23T23:20:55.766Z,21.90
2018-07-23T23:23:00.238Z,22.00
2018-07-23T23:25:04.863Z,21.90
2018-07-23T23:29:13.410Z,21.80
2018-07-23T23:31:17.871Z,21.80
2018-07-23T23:33:22.282Z,21.70
2018-07-23T23:35:26.738Z,21.70
2018-07-23T23:37:31.139Z,21.70
2018-07-23T23:39:35.659Z,21.70
2018-07-23T23:41:40.266Z,21.60
2018-07-23T23:43:44.691Z,21.50
2018-07-23T23:45:49.156Z,21.50
2018-07-23T23:47:53.569Z,21.50
2018-07-23T23:49:58.006Z,21.50
2018-07-23T23:54:06.629Z,21.40
2018-07-23T23:56:11.085Z,21.40
2018-07-23T23:58:15.562Z,21.30
